Time;durP1;ratioP1;P1;durP2;ratioP2;P2;SDS_P1;SDS_P2;PMS_P1;PMS_P2;Temp;Humidity;BMP_temperature;BMP_pressure;BME280_temperature;BME280_humidity;BME280_pressure;Samples;Min_cycle;Max_cycle;Signal;HPM_P1;HPM_P2
2023/02/24 00:02:13;;;;;;;44.50;28.65;;;10.30;99.90;;;;;;4923112;29;20207;-80
2023/02/24 00:04:40;;;;;;;47.83;29.55;;;10.20;99.90;;;;;;4920780;29;20219;-81
2023/02/24 00:07:09;;;;;;;39.35;26.27;;;10.10;99.90;;;;;;4925913;29;20231;-81
2023/02/24 00:09:39;;;;;;;42.95;27.95;;;10.10;99.90;;;;;;4929768;29;20239;-82
2023/02/24 00:12:10;;;;;;;44.10;29.17;;;10.00;99.90;;;;;;4923432;29;20223;-81
2023/02/24 00:14:39;;;;;;;48.65;27.10;;;9.90;99.90;;;;;;4916994;29;20235;-79
2023/02/24 00:17:07;;;;;;;46.08;29.50;;;10.00;99.90;;;;;;4910538;29;20415;-79
2023/02/24 00:19:35;;;;;;;40.78;24.98;;;10.10;99.90;;;;;;4925301;29;20215;-80
2023/02/24 00:22:04;;;;;;;35.47;24.27;;;10.10;99.90;;;;;;4939185;29;20247;-79
2023/02/24 00:24:32;;;;;;;45.05;26.90;;;10.10;99.90;;;;;;4957366;28;20211;-79
2023/02/24 00:27:06;;;;;;;43.13;26.02;;;9.70;99.90;;;;;;4949154;29;20226;-80
2023/02/24 00:29:36;;;;;;;38.38;25.45;;;9.70;99.90;;;;;;4946143;29;20195;-79
2023/02/24 00:32:06;;;;;;;41.25;24.83;;;9.70;99.90;;;;;;4933923;29;20207;-79
2023/02/24 00:34:35;;;;;;;41.85;29.25;;;9.80;99.90;;;;;;4933308;29;20297;-79
2023/02/24 00:37:05;;;;;;;40.40;25.83;;;9.60;99.90;;;;;;4930315;29;20230;-79
2023/02/24 00:39:34;;;;;;;39.00;24.60;;;9.60;99.90;;;;;;4929854;29;20638;-82
2023/02/24 00:42:04;;;;;;;39.17;25.00;;;9.40;99.90;;;;;;4926370;29;20216;-80
2023/02/24 00:44:33;;;;;;;37.08;26.33;;;9.50;99.90;;;;;;4920074;29;20215;-79
2023/02/24 00:47:03;;;;;;;40.20;26.73;;;9.60;99.90;;;;;;4925360;29;20222;-82
2023/02/24 00:49:31;;;;;;;35.92;25.80;;;9.60;99.90;;;;;;4927359;29;20241;-80
2023/02/24 00:51:58;;;;;;;43.47;26.13;;;9.50;99.90;;;;;;4936642;29;20266;-80
2023/02/24 00:54:27;;;;;;;43.72;30.65;;;9.60;99.90;;;;;;4914965;29;20253;-80
2023/02/24 00:56:55;;;;;;;39.65;25.40;;;9.60;99.90;;;;;;4926521;29;20243;-80
2023/02/24 00:59:23;;;;;;;39.67;26.40;;;9.60;99.90;;;;;;4931004;29;20216;-80
2023/02/24 01:01:50;;;;;;;45.45;27.98;;;9.70;99.90;;;;;;4920702;29;20227;-79
2023/02/24 01:04:18;;;;;;;46.13;29.38;;;9.90;99.90;;;;;;4926939;29;20260;-79
2023/02/24 01:06:49;;;;;;;39.83;25.25;;;9.60;99.90;;;;;;4928185;29;20221;-79
2023/02/24 01:09:19;;;;;;;37.10;25.00;;;9.50;99.90;;;;;;4931072;29;20267;-81
2023/02/24 01:14:35;;;;;;;41.70;24.60;;;9.60;99.90;;;;;;4921922;29;20243;-81
2023/02/24 01:17:03;;;;;;;44.63;25.17;;;9.60;99.90;;;;;;4924192;29;20287;-81
2023/02/24 01:19:32;;;;;;;41.53;26.15;;;9.50;99.90;;;;;;4931113;29;20255;-80
2023/02/24 01:22:06;;;;;;;41.80;25.52;;;9.70;99.90;;;;;;4935150;29;20219;-80
2023/02/24 01:24:36;;;;;;;38.45;25.75;;;9.60;99.90;;;;;;4922235;29;20356;-81
2023/02/24 01:27:05;;;;;;;43.22;26.00;;;9.40;99.90;;;;;;4926102;29;20450;-80
2023/02/24 01:29:38;;;;;;;44.33;26.10;;;9.50;99.90;;;;;;4934354;29;20253;-80
2023/02/24 01:32:06;;;;;;;44.95;27.15;;;9.40;99.90;;;;;;4933800;29;20433;-80
2023/02/24 01:34:33;;;;;;;37.92;24.83;;;9.50;99.90;;;;;;4934828;29;20326;-80
2023/02/24 01:37:00;;;;;;;42.08;26.00;;;9.60;99.90;;;;;;4923746;29;20212;-81
2023/02/24 01:39:27;;;;;;;38.30;25.45;;;9.80;99.90;;;;;;4928949;29;20437;-81
2023/02/24 01:41:55;;;;;;;43.70;28.02;;;9.80;99.90;;;;;;4931046;29;20269;-80
2023/02/24 01:44:23;;;;;;;45.78;26.67;;;9.90;99.90;;;;;;4929918;29;20206;-80
2023/02/24 01:46:51;;;;;;;43.97;27.50;;;9.90;99.90;;;;;;4926981;29;20250;-80
2023/02/24 01:49:22;;;;;;;50.25;30.15;;;10.00;99.90;;;;;;4916986;29;20231;-81
2023/02/24 01:51:57;;;;;;;45.13;27.58;;;10.00;99.90;;;;;;4923910;29;20207;-80
2023/02/24 01:54:31;;;;;;;40.25;26.52;;;10.00;99.90;;;;;;4928328;29;20240;-81
2023/02/24 01:57:00;;;;;;;46.67;25.05;;;9.90;99.90;;;;;;4936931;29;20214;-80
2023/02/24 01:59:29;;;;;;;53.40;28.30;;;9.80;99.90;;;;;;4931454;29;20251;-81
2023/02/24 02:02:02;;;;;;;37.72;25.17;;;9.80;99.90;;;;;;4924416;29;20497;-80
2023/02/24 02:04:41;;;;;;;45.42;29.02;;;9.80;99.90;;;;;;4927547;29;20256;-81
2023/02/24 02:07:12;;;;;;;47.38;29.88;;;9.90;99.90;;;;;;4927004;29;20289;-80
2023/02/24 02:09:42;;;;;;;41.40;26.48;;;10.00;99.90;;;;;;4925686;29;20478;-81
2023/02/24 02:12:12;;;;;;;44.80;29.30;;;9.90;99.90;;;;;;4933771;29;20214;-81
2023/02/24 02:14:43;;;;;;;47.15;28.00;;;9.90;99.90;;;;;;4924095;29;20477;-82
2023/02/24 02:17:25;;;;;;;47.65;25.77;;;9.80;99.90;;;;;;4920724;29;20226;-80
2023/02/24 02:20:22;;;;;;;40.30;27.00;;;9.80;99.90;;;;;;4923091;29;20212;-81
2023/02/24 02:22:54;;;;;;;48.53;25.58;;;9.70;99.90;;;;;;4931978;29;20210;-81
2023/02/24 02:25:54;;;;;;;43.97;26.02;;;9.60;99.90;;;;;;4925249;29;20222;-80
2023/02/24 02:28:30;;;;;;;46.28;26.83;;;9.60;99.90;;;;;;4927195;29;20207;-80
2023/02/24 02:31:08;;;;;;;47.60;27.35;;;9.70;99.90;;;;;;4932516;29;20222;-81
2023/02/24 02:33:45;;;;;;;51.55;27.35;;;9.60;99.90;;;;;;4929216;29;20219;-81
2023/02/24 02:36:30;;;;;;;54.85;30.10;;;9.70;99.90;;;;;;4921722;29;20251;-79
2023/02/24 02:39:11;;;;;;;39.47;26.05;;;9.60;99.90;;;;;;4932013;29;20523;-81
2023/02/24 02:41:54;;;;;;;51.30;27.15;;;9.60;99.90;;;;;;4936433;29;20217;-82
2023/02/24 02:44:31;;;;;;;51.10;28.65;;;9.50;99.90;;;;;;4915806;29;20215;-80
2023/02/24 02:47:05;;;;;;;42.40;28.10;;;9.50;99.90;;;;;;4930080;29;20534;-80
2023/02/24 02:49:42;;;;;;;50.88;28.35;;;9.60;99.90;;;;;;4926726;29;20219;-81
2023/02/24 02:52:16;;;;;;;53.22;30.90;;;9.70;99.90;;;;;;4917962;29;20226;-80
2023/02/24 02:55:02;;;;;;;52.30;30.42;;;9.70;99.90;;;;;;4938026;29;20523;-80
2023/02/24 02:57:30;;;;;;;47.28;28.92;;;9.60;99.90;;;;;;4925365;29;20211;-80
2023/02/24 03:00:12;;;;;;;40.30;25.83;;;9.50;99.90;;;;;;4929302;29;20239;-81
2023/02/24 03:02:43;;;;;;;46.35;26.27;;;9.50;99.90;;;;;;4933159;29;20273;-81
2023/02/24 03:05:16;;;;;;;49.03;25.25;;;9.40;99.90;;;;;;4919645;29;20503;-81
2023/02/24 03:07:48;;;;;;;40.08;26.60;;;9.40;99.90;;;;;;4927490;29;20216;-81
2023/02/24 03:10:21;;;;;;;48.50;30.33;;;9.30;99.90;;;;;;4928839;29;20233;-81
2023/02/24 03:12:52;;;;;;;48.78;27.85;;;9.30;99.90;;;;;;4938050;29;20270;-81
2023/02/24 03:15:22;;;;;;;48.60;29.45;;;9.30;99.90;;;;;;4928554;29;20311;-81
2023/02/24 03:17:56;;;;;;;51.05;28.42;;;9.40;99.90;;;;;;4923856;29;20432;-81
2023/02/24 03:20:34;;;;;;;45.33;27.25;;;9.50;99.90;;;;;;4923577;29;20219;-81
2023/02/24 03:23:06;;;;;;;44.40;27.35;;;9.60;99.90;;;;;;4921838;29;20216;-81
2023/02/24 03:25:45;;;;;;;54.13;29.38;;;9.50;99.90;;;;;;4933236;29;20206;-81
2023/02/24 03:28:27;;;;;;;63.33;30.90;;;9.60;99.90;;;;;;4929562;29;20237;-82
2023/02/24 03:31:03;;;;;;;49.95;27.08;;;9.40;99.90;;;;;;4934843;29;20206;-80
2023/02/24 03:33:49;;;;;;;54.03;31.45;;;9.30;99.90;;;;;;4917823;29;20222;-79
2023/02/24 03:36:16;;;;;;;50.40;28.77;;;9.20;99.90;;;;;;4932348;29;20239;-80
2023/02/24 03:38:42;;;;;;;61.40;31.65;;;9.20;99.90;;;;;;4930113;29;20267;-81
2023/02/24 03:41:10;;;;;;;47.65;27.52;;;9.30;99.90;;;;;;4929588;29;20251;-81
2023/02/24 03:43:46;;;;;;;57.33;32.65;;;9.30;99.90;;;;;;4923803;29;20214;-80
2023/02/24 03:46:15;;;;;;;48.85;30.02;;;9.40;99.90;;;;;;4925186;29;20469;-79
2023/02/24 03:48:50;;;;;;;52.05;28.45;;;9.40;99.90;;;;;;4930919;29;20278;-81
2023/02/24 03:51:19;;;;;;;49.80;30.55;;;9.40;99.90;;;;;;4922788;29;20241;-80
2023/02/24 03:53:55;;;;;;;52.88;29.95;;;9.20;99.90;;;;;;4922830;29;20262;-81
2023/02/24 03:56:32;;;;;;;47.65;30.13;;;9.30;99.90;;;;;;4934535;29;20265;-80
2023/02/24 03:59:14;;;;;;;51.35;29.38;;;9.30;99.90;;;;;;4920423;29;20219;-81
2023/02/24 04:01:56;;;;;;;43.47;27.65;;;9.30;99.90;;;;;;4926601;29;20202;-81
2023/02/24 04:04:38;;;;;;;62.95;31.48;;;9.30;99.90;;;;;;4927875;29;20558;-82
2023/02/24 04:07:14;;;;;;;46.13;29.83;;;9.30;99.90;;;;;;4921620;29;20282;-80
2023/02/24 04:10:04;;;;;;;42.55;26.17;;;9.30;99.90;;;;;;4929565;29;20255;-80
2023/02/24 04:12:35;;;;;;;47.67;28.38;;;9.30;99.90;;;;;;4919794;29;20263;-81
2023/02/24 04:15:28;;;;;;;50.10;28.98;;;9.20;99.90;;;;;;4936980;29;20770;-81
2023/02/24 04:18:01;;;;;;;53.95;32.25;;;9.10;99.90;;;;;;4921593;29;20215;-81
2023/02/24 04:20:32;;;;;;;45.65;27.08;;;9.10;99.90;;;;;;4927137;29;20218;-79
2023/02/24 04:23:07;;;;;;;45.38;28.70;;;8.90;99.90;;;;;;4924697;29;20740;-80
2023/02/24 04:25:35;;;;;;;55.40;30.35;;;8.90;99.90;;;;;;4921329;29;20214;-82
2023/02/24 04:28:06;;;;;;;51.45;30.55;;;8.90;99.90;;;;;;4925477;29;20218;-81
2023/02/24 04:30:38;;;;;;;42.63;27.42;;;8.90;99.90;;;;;;4929938;29;20260;-79
2023/02/24 04:33:06;;;;;;;50.65;29.27;;;8.90;99.90;;;;;;4933282;29;20217;-80
2023/02/24 04:35:33;;;;;;;42.17;26.35;;;8.80;99.90;;;;;;4924493;29;20463;-79
2023/02/24 04:38:00;;;;;;;46.10;26.70;;;8.80;99.90;;;;;;4922671;29;20207;-80
2023/02/24 04:40:27;;;;;;;41.55;24.80;;;8.70;99.90;;;;;;4935942;29;20218;-80
2023/02/24 04:42:54;;;;;;;47.50;26.55;;;8.70;99.90;;;;;;4924679;29;20223;-80
2023/02/24 04:45:27;;;;;;;55.90;29.88;;;8.50;99.90;;;;;;4926722;29;20221;-80
2023/02/24 04:48:01;;;;;;;58.60;30.60;;;8.70;99.90;;;;;;4920004;29;20207;-80
2023/02/24 04:50:34;;;;;;;42.40;28.23;;;8.70;99.90;;;;;;4929029;29;20214;-82
2023/02/24 04:53:06;;;;;;;47.15;28.38;;;8.60;99.90;;;;;;4926093;29;20247;-82
2023/02/24 04:55:38;;;;;;;46.63;26.75;;;8.50;99.90;;;;;;4928088;29;20264;-81
2023/02/24 04:58:11;;;;;;;49.28;27.73;;;8.50;99.90;;;;;;4933450;29;20224;-81
2023/02/24 05:00:40;;;;;;;48.20;29.75;;;8.50;99.90;;;;;;4926055;29;20262;-82
2023/02/24 05:03:10;;;;;;;50.83;30.98;;;8.40;99.90;;;;;;4927626;29;20206;-80
2023/02/24 05:05:37;;;;;;;48.83;28.15;;;8.50;99.90;;;;;;4939871;29;20195;-80
2023/02/24 05:08:07;;;;;;;48.15;30.00;;;8.40;99.90;;;;;;4951971;28;20187;-81
2023/02/24 05:10:46;;;;;;;57.42;31.92;;;8.60;99.90;;;;;;4950798;28;20197;-81
2023/02/24 05:13:26;;;;;;;48.60;30.98;;;8.70;99.90;;;;;;4932898;29;20190;-80
2023/02/24 05:15:58;;;;;;;53.75;30.65;;;8.60;99.90;;;;;;4933186;29;20258;-80
2023/02/24 05:18:28;;;;;;;53.10;28.80;;;8.70;99.90;;;;;;4933631;29;20418;-81
2023/02/24 05:23:44;;;;;;;51.72;30.13;;;8.90;99.90;;;;;;4931943;29;20215;-80
2023/02/24 05:26:15;;;;;;;51.05;29.80;;;8.80;99.90;;;;;;4926735;29;20215;-81
2023/02/24 05:28:50;;;;;;;53.15;30.05;;;8.80;99.90;;;;;;4940746;29;20215;-81
2023/02/24 05:31:24;;;;;;;46.50;26.67;;;8.80;99.90;;;;;;4942272;29;20214;-81
2023/02/24 05:33:56;;;;;;;53.70;28.05;;;9.00;99.90;;;;;;4943422;29;20210;-82
2023/02/24 05:36:25;;;;;;;46.45;27.38;;;8.80;99.90;;;;;;4924543;29;20544;-81
2023/02/24 05:38:56;;;;;;;50.10;31.63;;;8.60;99.90;;;;;;4925048;29;20222;-81
2023/02/24 05:41:31;;;;;;;50.50;29.63;;;8.60;99.90;;;;;;4933989;29;20223;-81
2023/02/24 05:44:01;;;;;;;44.15;26.55;;;8.60;99.90;;;;;;4932645;29;20211;-80
2023/02/24 05:46:31;;;;;;;46.85;26.95;;;8.70;99.90;;;;;;4925778;29;20227;-82
2023/02/24 05:49:01;;;;;;;43.75;26.73;;;8.40;99.90;;;;;;4933573;29;20430;-82
2023/02/24 05:51:34;;;;;;;44.97;26.83;;;8.60;99.90;;;;;;4923062;29;20215;-81
2023/02/24 05:54:09;;;;;;;42.17;26.92;;;8.90;99.90;;;;;;4925346;29;20693;-82
2023/02/24 05:56:39;;;;;;;38.92;25.90;;;8.70;99.90;;;;;;4927220;29;20530;-81
2023/02/24 05:59:10;;;;;;;52.05;28.40;;;8.70;99.90;;;;;;4925966;29;20213;-81
2023/02/24 06:01:44;;;;;;;57.25;26.90;;;8.80;99.90;;;;;;4935920;29;20223;-81
2023/02/24 06:04:19;;;;;;;46.47;26.00;;;8.90;99.90;;;;;;4919296;29;20209;-81
2023/02/24 06:06:51;;;;;;;42.95;26.25;;;8.90;99.90;;;;;;4925974;29;20215;-82
2023/02/24 06:09:21;;;;;;;43.83;28.27;;;8.90;99.90;;;;;;4921072;29;20219;-82
2023/02/24 06:11:49;;;;;;;50.45;27.05;;;9.20;99.90;;;;;;4938767;29;20506;-83
2023/02/24 06:14:16;;;;;;;44.00;25.98;;;9.30;99.90;;;;;;4930823;29;20210;-81
2023/02/24 06:16:43;;;;;;;48.33;28.95;;;9.30;99.90;;;;;;4922449;29;20234;-80
2023/02/24 06:19:12;;;;;;;46.92;28.17;;;9.20;99.90;;;;;;4921880;29;20216;-81
2023/02/24 06:21:40;;;;;;;42.17;25.52;;;8.90;99.90;;;;;;4921253;29;20441;-80
2023/02/24 06:24:13;;;;;;;35.50;21.85;;;8.50;99.90;;;;;;4926132;29;20729;-78
2023/02/24 06:26:44;;;;;;;28.45;18.10;;;8.30;99.90;;;;;;4922332;29;20431;-81
2023/02/24 06:29:13;;;;;;;26.40;15.25;;;8.10;99.90;;;;;;4920030;29;20207;-81
2023/02/24 06:31:41;;;;;;;27.50;15.85;;;8.10;99.90;;;;;;4921328;29;20218;-80
2023/02/24 06:34:17;;;;;;;31.50;16.92;;;8.10;99.90;;;;;;4923819;29;20265;-80
2023/02/24 06:36:47;;;;;;;27.65;15.65;;;8.00;99.90;;;;;;4922361;29;20243;-82
2023/02/24 06:39:15;;;;;;;32.83;17.48;;;8.10;99.90;;;;;;4926921;29;20214;-82
2023/02/24 06:41:43;;;;;;;33.83;18.08;;;8.10;99.90;;;;;;4921903;29;20238;-80
2023/02/24 06:44:10;;;;;;;37.47;19.70;;;8.10;99.90;;;;;;4922422;29;20527;-79
2023/02/24 06:46:37;;;;;;;29.05;16.90;;;8.20;99.90;;;;;;4925797;29;20265;-80
2023/02/24 06:49:04;;;;;;;30.42;18.23;;;8.20;99.90;;;;;;4922847;29;20586;-80
2023/02/24 06:51:32;;;;;;;37.17;21.48;;;8.30;99.90;;;;;;4926905;29;20203;-79
2023/02/24 06:53:59;;;;;;;34.92;20.90;;;8.40;99.90;;;;;;4936006;29;20270;-81
2023/02/24 06:56:26;;;;;;;48.72;23.75;;;8.40;99.90;;;;;;4918662;29;20234;-80
2023/02/24 06:58:55;;;;;;;36.28;19.10;;;8.40;99.90;;;;;;4917464;29;20216;-82
2023/02/24 07:01:24;;;;;;;33.38;18.20;;;8.30;99.90;;;;;;4917099;29;20511;-81
2023/02/24 07:06:37;;;;;;;38.00;19.55;;;8.20;99.90;;;;;;4921648;29;20212;-83
2023/02/24 07:09:12;;;;;;;34.17;19.85;;;8.20;99.90;;;;;;4927956;29;20390;-80
2023/02/24 07:11:50;;;;;;;43.42;19.85;;;8.20;99.90;;;;;;4915790;29;20202;-80
2023/02/24 07:14:26;;;;;;;40.92;20.13;;;8.20;99.90;;;;;;4922063;29;20215;-80
2023/02/24 07:16:55;;;;;;;38.63;21.10;;;8.10;99.90;;;;;;4930655;29;20299;-81
2023/02/24 07:19:31;;;;;;;38.15;20.50;;;8.10;99.90;;;;;;4922709;29;20203;-82
2023/02/24 07:22:00;;;;;;;36.40;21.10;;;8.10;99.90;;;;;;4920878;29;20214;-81
2023/02/24 07:24:34;;;;;;;36.00;21.35;;;8.10;99.90;;;;;;4922786;29;20209;-82
2023/02/24 07:27:10;;;;;;;38.15;20.83;;;7.90;99.90;;;;;;4934122;29;20213;-81
2023/02/24 07:29:37;;;;;;;33.05;17.42;;;7.80;99.90;;;;;;4922168;29;20515;-80
2023/02/24 07:32:07;;;;;;;36.60;19.45;;;7.80;99.90;;;;;;4932236;29;20258;-81
2023/02/24 07:34:38;;;;;;;28.08;16.05;;;7.70;99.90;;;;;;4928164;29;20213;-81
2023/02/24 07:37:07;;;;;;;28.67;15.13;;;7.50;99.90;;;;;;4918693;29;20312;-81
2023/02/24 07:39:35;;;;;;;42.42;18.55;;;7.50;99.90;;;;;;4921934;29;20302;-82
2023/02/24 07:42:05;;;;;;;27.35;17.05;;;7.40;99.90;;;;;;4923650;29;20309;-82
2023/02/24 07:44:33;;;;;;;43.95;19.67;;;7.50;99.90;;;;;;4917783;29;20514;-82
2023/02/24 07:47:06;;;;;;;31.40;18.05;;;7.50;99.90;;;;;;4921425;29;20233;-81
2023/02/24 07:49:39;;;;;;;36.55;17.70;;;7.60;99.90;;;;;;4924640;29;20290;-82
2023/02/24 07:52:07;;;;;;;30.35;19.38;;;7.60;99.90;;;;;;4920389;29;20337;-80
2023/02/24 07:54:34;;;;;;;29.98;18.00;;;7.50;99.90;;;;;;4933728;29;20273;-82
2023/02/24 07:57:01;;;;;;;34.30;20.10;;;7.50;99.90;;;;;;4918215;29;20281;-79
2023/02/24 07:59:31;;;;;;;30.27;17.75;;;7.60;99.90;;;;;;4926571;29;20584;-79
2023/02/24 08:02:03;;;;;;;35.60;17.75;;;7.70;99.90;;;;;;4921681;29;20242;-80
2023/02/24 08:04:31;;;;;;;30.45;18.52;;;7.60;99.90;;;;;;4921396;29;20211;-80
2023/02/24 08:07:01;;;;;;;30.17;18.27;;;7.50;99.90;;;;;;4928052;29;20225;-81
2023/02/24 08:10:08;;;;;;;33.22;18.60;;;7.50;99.90;;;;;;4926897;29;20280;-80
2023/02/24 08:12:33;;;;;;;31.92;18.90;;;7.60;99.90;;;;;;4930047;29;20211;-82
2023/02/24 08:15:15;;;;;;;32.20;18.08;;;7.80;99.90;;;;;;4923290;29;20682;-81
2023/02/24 08:17:46;;;;;;;40.05;19.60;;;7.90;99.90;;;;;;4921999;29;20285;-82
2023/02/24 08:22:45;;;;;;;36.85;19.45;;;8.20;99.90;;;;;;4931419;29;20225;-80
2023/02/24 08:25:17;;;;;;;35.83;20.73;;;8.20;99.90;;;;;;4920220;29;20274;-80
2023/02/24 08:27:54;;;;;;;31.88;18.27;;;8.30;99.90;;;;;;4937238;29;20230;-79
2023/02/24 08:30:43;;;;;;;27.23;20.17;;;8.40;99.90;;;;;;4934930;29;20294;-80
2023/02/24 08:33:17;;;;;;;30.70;17.95;;;8.50;99.90;;;;;;4927032;29;20279;-82
2023/02/24 08:35:49;;;;;;;25.83;16.38;;;8.50;99.90;;;;;;4921152;29;20403;-82
2023/02/24 08:38:19;;;;;;;29.10;18.35;;;8.50;99.90;;;;;;4924918;29;20219;-80
2023/02/24 08:40:50;;;;;;;29.75;15.40;;;8.40;99.90;;;;;;4930805;29;20248;-79
2023/02/24 08:45:56;;;;;;;25.05;15.65;;;8.10;99.90;;;;;;4918880;29;20219;-80
2023/02/24 08:48:31;;;;;;;31.85;16.08;;;8.10;99.90;;;;;;4931120;29;20213;-81
2023/02/24 08:51:00;;;;;;;26.77;15.65;;;8.10;99.90;;;;;;4925212;29;20221;-80
2023/02/24 08:53:30;;;;;;;25.60;14.57;;;8.20;99.90;;;;;;4919211;29;20214;-81
2023/02/24 08:56:11;;;;;;;20.77;14.98;;;8.10;99.90;;;;;;4927671;29;20237;-80
2023/02/24 08:58:47;;;;;;;20.45;13.00;;;8.10;99.90;;;;;;4928112;29;20215;-83
2023/02/24 09:01:23;;;;;;;18.35;11.13;;;8.10;99.90;;;;;;4919889;29;20263;-80
2023/02/24 09:03:56;;;;;;;19.80;9.68;;;8.30;99.90;;;;;;4928392;29;20210;-82
2023/02/24 09:06:46;;;;;;;17.45;11.50;;;8.10;99.90;;;;;;4934890;29;20269;-81
2023/02/24 09:09:16;;;;;;;15.68;10.45;;;8.20;99.90;;;;;;4926454;29;20215;-81
2023/02/24 09:11:54;;;;;;;18.42;10.10;;;8.30;99.90;;;;;;4922802;29;20241;-81
2023/02/24 09:14:27;;;;;;;20.02;10.02;;;8.50;99.90;;;;;;4926740;29;20373;-80
2023/02/24 09:17:00;;;;;;;15.82;10.60;;;8.60;99.90;;;;;;4933290;29;20297;-79
2023/02/24 09:19:39;;;;;;;22.83;10.93;;;8.70;99.90;;;;;;4925869;29;20496;-82
2023/02/24 09:22:30;;;;;;;20.73;11.48;;;8.70;99.90;;;;;;4919632;29;20213;-79
2023/02/24 09:25:18;;;;;;;19.23;10.75;;;8.70;99.90;;;;;;4927650;29;20215;-80
2023/02/24 09:27:54;;;;;;;16.85;10.52;;;8.60;99.90;;;;;;4920070;29;20219;-80
2023/02/24 09:30:37;;;;;;;20.33;11.32;;;8.60;99.90;;;;;;4915712;29;20203;-83
2023/02/24 09:33:17;;;;;;;21.48;10.55;;;8.60;99.90;;;;;;4925441;29;20214;-81
2023/02/24 09:36:18;;;;;;;13.50;8.73;;;8.60;99.90;;;;;;4933645;29;20391;-80
2023/02/24 09:41:54;;;;;;;15.45;11.02;;;8.70;99.90;;;;;;4915000;29;20211;-81
2023/02/24 09:44:36;;;;;;;16.20;9.50;;;8.80;99.90;;;;;;4945491;28;20187;-80
2023/02/24 09:47:38;;;;;;;14.82;9.98;;;8.90;99.90;;;;;;4952535;28;20203;-80
2023/02/24 09:50:15;;;;;;;13.88;8.65;;;8.80;99.90;;;;;;4951025;28;20197;-79
2023/02/24 09:53:15;;;;;;;17.00;10.50;;;8.60;99.90;;;;;;4932779;28;20496;-81
2023/02/24 09:55:59;;;;;;;14.88;9.73;;;8.60;99.90;;;;;;4922762;29;20214;-79
2023/02/24 09:58:30;;;;;;;14.77;10.48;;;8.40;99.90;;;;;;4923644;29;20211;-80
2023/02/24 10:01:46;;;;;;;13.85;9.52;;;8.30;99.90;;;;;;4935855;29;20214;-80
2023/02/24 10:04:33;;;;;;;13.80;8.90;;;8.40;99.90;;;;;;4923808;29;20304;-80
2023/02/24 10:07:09;;;;;;;12.68;9.02;;;8.30;99.90;;;;;;4931736;29;20222;-79
2023/02/24 10:09:45;;;;;;;15.40;9.90;;;8.40;99.90;;;;;;4934975;29;20214;-80
2023/02/24 10:12:15;;;;;;;15.00;8.52;;;8.50;99.90;;;;;;4926631;29;20218;-79
2023/02/24 10:15:17;;;;;;;15.15;9.93;;;8.70;99.90;;;;;;4921785;29;20214;-79
2023/02/24 10:17:54;;;;;;;18.35;9.93;;;8.70;99.90;;;;;;4924366;29;20242;-79
2023/02/24 10:20:38;;;;;;;14.45;9.10;;;8.70;99.90;;;;;;4918884;29;20211;-81
2023/02/24 10:23:28;;;;;;;16.00;9.85;;;8.80;99.90;;;;;;4927994;29;20511;-81
2023/02/24 10:26:03;;;;;;;13.93;9.70;;;9.00;99.90;;;;;;4922612;29;20211;-82
2023/02/24 10:28:54;;;;;;;16.73;7.75;;;9.30;99.90;;;;;;4922756;29;20249;-81
2023/02/24 10:31:28;;;;;;;11.07;6.80;;;8.90;99.90;;;;;;4922504;29;20211;-79
2023/02/24 10:34:00;;;;;;;10.30;4.32;;;8.60;99.90;;;;;;4923336;29;20525;-80
2023/02/24 10:36:34;;;;;;;7.28;4.95;;;8.40;99.90;;;;;;4916960;29;20248;-80
2023/02/24 10:39:07;;;;;;;9.32;6.00;;;8.40;99.90;;;;;;4922614;29;20218;-80
2023/02/24 10:41:46;;;;;;;8.00;5.22;;;8.30;99.90;;;;;;4914223;29;20227;-82
2023/02/24 10:44:25;;;;;;;6.45;4.53;;;8.30;99.90;;;;;;4917226;29;20221;-80
2023/02/24 10:47:10;;;;;;;8.88;5.00;;;8.40;99.90;;;;;;4922123;29;20243;-80
2023/02/24 10:49:55;;;;;;;11.23;5.70;;;8.50;99.90;;;;;;4922116;29;20216;-81
2023/02/24 10:52:49;;;;;;;5.90;4.53;;;8.90;99.90;;;;;;4921545;29;20230;-80
2023/02/24 10:55:27;;;;;;;7.15;4.88;;;9.50;99.90;;;;;;4928295;29;20263;-80
2023/02/24 10:58:14;;;;;;;5.85;4.57;;;10.00;99.90;;;;;;4924426;29;20589;-80
2023/02/24 11:01:19;;;;;;;6.85;5.45;;;9.90;99.90;;;;;;4922813;29;20215;-80
2023/02/24 11:03:46;;;;;;;4.25;3.20;;;9.60;99.90;;;;;;4919824;29;20412;-80
2023/02/24 11:09:31;;;;;;;6.80;4.03;;;9.20;99.90;;;;;;4917376;29;20530;-81
2023/02/24 11:17:55;;;;;;;6.38;5.18;;;9.40;99.90;;;;;;4922125;29;20279;-81
2023/02/24 11:20:56;;;;;;;5.00;3.70;;;9.20;99.90;;;;;;4917054;29;20450;-82
2023/02/24 11:23:34;;;;;;;6.18;4.30;;;9.00;99.90;;;;;;4920102;29;20211;-79
2023/02/24 11:26:40;;;;;;;5.82;3.85;;;8.70;99.90;;;;;;4920992;29;20218;-81
2023/02/24 11:29:20;;;;;;;8.10;5.00;;;8.40;99.90;;;;;;4921029;29;20214;-81
2023/02/24 11:32:12;;;;;;;5.85;4.13;;;8.40;99.90;;;;;;4934424;29;20234;-80
2023/02/24 11:34:57;;;;;;;5.55;4.45;;;8.30;99.90;;;;;;4934527;29;20274;-81
2023/02/24 11:38:00;;;;;;;7.13;5.25;;;8.40;99.90;;;;;;4921507;29;20263;-81
2023/02/24 11:40:38;;;;;;;8.75;4.72;;;8.50;99.90;;;;;;4923311;29;20206;-80
2023/02/24 11:43:19;;;;;;;6.55;5.13;;;8.70;99.90;;;;;;4922473;29;20211;-80
2023/02/24 11:46:02;;;;;;;6.55;5.03;;;8.70;99.90;;;;;;4930198;29;20203;-80
2023/02/24 11:48:36;;;;;;;7.18;4.88;;;8.70;99.90;;;;;;4921678;29;20306;-81
2023/02/24 11:51:17;;;;;;;8.07;6.13;;;8.50;99.90;;;;;;4921493;29;20202;-79
2023/02/24 11:54:02;;;;;;;8.27;4.72;;;8.50;99.90;;;;;;4927620;29;20208;-81
2023/02/24 11:56:52;;;;;;;6.28;5.60;;;8.70;99.90;;;;;;4922287;29;20246;-79
2023/02/24 11:59:44;;;;;;;8.68;7.43;;;8.90;99.90;;;;;;4919236;29;20198;-80
2023/02/24 12:02:48;;;;;;;8.35;6.85;;;9.30;99.90;;;;;;4926056;29;20215;-81
2023/02/24 12:05:23;;;;;;;6.72;6.05;;;9.80;99.90;;;;;;4912827;29;20206;-81
2023/02/24 12:07:57;;;;;;;8.00;5.10;;;10.10;99.90;;;;;;4925876;29;20219;-80
2023/02/24 12:10:34;;;;;;;7.30;6.13;;;10.10;99.90;;;;;;4924786;29;20226;-80
2023/02/24 12:13:10;;;;;;;6.22;5.63;;;10.40;99.90;;;;;;4927416;29;20208;-80
2023/02/24 12:15:49;;;;;;;9.25;5.65;;;10.50;99.90;;;;;;4923416;29;20241;-80
2023/02/24 12:18:26;;;;;;;7.80;6.25;;;10.50;99.90;;;;;;4924222;29;20246;-79
2023/02/24 12:21:01;;;;;;;6.03;5.15;;;10.50;99.90;;;;;;4922419;29;20238;-82
2023/02/24 12:23:39;;;;;;;9.50;6.03;;;10.40;99.90;;;;;;4918964;29;20216;-80
2023/02/24 12:26:22;;;;;;;10.10;6.32;;;10.60;99.90;;;;;;4924087;29;20448;-80
2023/02/24 12:29:08;;;;;;;6.80;5.75;;;10.70;99.90;;;;;;4926304;29;20234;-80
2023/02/24 12:31:52;;;;;;;7.13;4.93;;;11.20;99.90;;;;;;4921996;29;20228;-79
2023/02/24 12:34:32;;;;;;;4.30;3.85;;;11.40;99.90;;;;;;4921716;29;20204;-80
2023/02/24 12:37:06;;;;;;;4.75;4.35;;;11.60;99.90;;;;;;4928829;29;20234;-80
2023/02/24 12:40:10;;;;;;;5.00;4.15;;;11.40;99.90;;;;;;4921065;29;20540;-78
2023/02/24 12:43:29;;;;;;;6.70;4.30;;;11.50;99.90;;;;;;4922905;29;20208;-81
2023/02/24 12:46:14;;;;;;;4.15;3.45;;;11.70;99.90;;;;;;4861147;29;20412;-79
2023/02/24 12:48:44;;;;;;;3.78;2.92;;;11.60;99.90;;;;;;4912913;29;20253;-82
2023/02/24 12:51:54;;;;;;;3.40;3.10;;;11.30;99.90;;;;;;4921545;29;20202;-82
2023/02/24 12:54:28;;;;;;;9.13;3.85;;;11.20;99.90;;;;;;4947511;28;20203;-81
2023/02/24 12:57:22;;;;;;;6.40;4.03;;;11.10;99.90;;;;;;4948285;29;20223;-79
2023/02/24 12:59:50;;;;;;;3.00;2.60;;;10.90;99.90;;;;;;4920898;29;20215;-79
2023/02/24 13:02:52;;;;;;;3.83;3.10;;;10.80;99.90;;;;;;4917411;29;20243;-80
2023/02/24 13:05:32;;;;;;;4.32;3.08;;;10.60;99.90;;;;;;4923574;29;21188;-80
2023/02/24 13:08:22;;;;;;;5.25;3.25;;;10.80;99.90;;;;;;4931351;29;20258;-80
2023/02/24 13:11:24;;;;;;;4.57;3.15;;;11.10;99.90;;;;;;4923579;29;20227;-80
2023/02/24 13:13:58;;;;;;;3.90;3.55;;;11.10;99.90;;;;;;4931154;29;20448;-81
2023/02/24 13:16:29;;;;;;;4.55;3.13;;;11.30;99.90;;;;;;4930609;29;20507;-81
2023/02/24 13:19:27;;;;;;;8.85;3.85;;;11.50;99.90;;;;;;4929848;29;20220;-81
2023/02/24 13:22:12;;;;;;;2.78;2.47;;;11.60;99.90;;;;;;4923864;29;20579;-81
2023/02/24 13:25:01;;;;;;;6.28;3.55;;;11.50;99.90;;;;;;4922470;29;20212;-82
2023/02/24 13:27:39;;;;;;;6.50;4.00;;;11.40;99.90;;;;;;4915683;29;20212;-80
2023/02/24 13:30:18;;;;;;;4.20;3.15;;;11.60;99.90;;;;;;4927820;29;20229;-80
2023/02/24 13:32:57;;;;;;;4.28;3.40;;;11.60;99.90;;;;;;4928812;29;20210;-80
2023/02/24 13:35:24;;;;;;;3.55;2.80;;;11.70;99.90;;;;;;4926973;29;20381;-80
2023/02/24 13:37:52;;;;;;;4.20;2.70;;;11.50;99.90;;;;;;4933821;29;20216;-80
2023/02/24 13:40:22;;;;;;;4.15;3.10;;;11.10;99.90;;;;;;4927908;29;20304;-79
2023/02/24 13:42:56;;;;;;;3.30;3.00;;;11.00;99.90;;;;;;4931057;29;20287;-81
2023/02/24 13:45:24;;;;;;;8.18;3.60;;;11.00;99.90;;;;;;4925849;29;20211;-82
2023/02/24 13:48:10;;;;;;;5.57;4.10;;;11.10;99.90;;;;;;4926483;29;20216;-81
2023/02/24 13:50:59;;;;;;;3.38;3.08;;;11.10;99.90;;;;;;4931763;29;20216;-81